Tzoanna Vi — SYHY — position and weather

sailwx.info

Track history (hours):
 
Tides and Currents Weather Stations Pressure Air Temp Water Temp Dewpoint Dewpoint Depression Visibility Wind Speed Wind Dir Waves Ship Positions

Tzoanna Vi

Last reported at 2016-Jul-23 02:31 UTC. Time now 2016-Jul-26 19:49 UTC.
Position N 38°33' E 024°18'.

Length 84 m; draft 5.7 m.

Type: Cargo ship. MMSI: 237991700.

Date/timePositionNaut miles runAvg speedWind from/ knotsBaromVisibWave heightAir tempDewpointWater temp
2016-Jul-23 02:31N 38°33' E 024°18'35 8.1
2016-Jul-22 22:11N 38°01' E 024°37'6 8.9
2016-Jul-22 21:33N 37°55' E 024°36'9 8.5
2016-Jul-22 20:33N 37°48' E 024°32'8 7.8
2016-Jul-22 19:33N 37°40' E 024°28'74 5.0
2016-Jul-22 04:33N 36°31' E 023°53'1010.3
2016-Jul-22 03:32N 36°29' E 023°40'1110.5
2016-Jul-22 02:31N 36°26' E 023°27'30 0.8
2016-Jul-20 14:26N 36°56' E 023°20'8 9.4
2016-Jul-20 13:31N 37°02' E 023°27'37 9.1
2016-Jul-20 09:26N 37°29' E 023°59'9 9.7
2016-Jul-20 08:29N 37°36' E 024°07'10 9.6
2016-Jul-20 07:29N 37°43' E 024°15'9 9.2
2016-Jul-20 06:31N 37°49' E 024°23'  
2016-Jul-17 18:29N 38°23' E 023°42'1010.4
2016-Jul-17 17:30N 38°22' E 023°55'6 0.4
2016-Jul-17 02:15N 38°22' E 024°03'0 0.4
2016-Jul-17 01:24N 38°23' E 024°03'0 0.0
2016-Jul-17 00:31N 38°23' E 024°03'0 0.0
2016-Jul-16 23:27N 38°23' E 024°03'0 0.0
2016-Jul-16 22:33N 38°23' E 024°03'0 0.0
2016-Jul-16 21:24N 38°23' E 024°03'0 0.0
2016-Jul-16 20:31N 38°23' E 024°03'0 0.1
2016-Jul-16 19:22N 38°23' E 024°03'0 0.0
2016-Jul-16 18:15N 38°23' E 024°03'0 0.0
2016-Jul-16 02:03N 38°23' E 024°03'0 0.0
2016-Jul-16 00:23N 38°23' E 024°03'0 0.0
2016-Jul-15 23:26N 38°23' E 024°03'0 0.0
2016-Jul-15 22:12N 38°23' E 024°03'0 0.0
2016-Jul-15 21:31N 38°23' E 024°03'14 1.0
2016-Jul-15 08:05N 38°09' E 024°06'5 9.2
2016-Jul-15 07:33N 38°05' E 024°09'8 8.5
2016-Jul-15 06:33N 37°58' E 024°15'21 6.3
2016-Jul-15 03:15N 38°10' E 024°37'9 8.5
2016-Jul-15 02:12N 38°18' E 024°31'6 8.8
2016-Jul-15 01:33N 38°23' E 024°27'34 0.8
2016-Jul-13 09:24N 38°22' E 023°45'  
Track history (hours):
 
Tides and Currents Weather Stations Pressure Air Temp Water Temp Dewpoint Dewpoint Depression Visibility Wind Speed Wind Dir Waves Ship Positions

Tzoanna Vi

Last reported at 2016-Jul-23 02:31 UTC. Time now 2016-Jul-26 19:49 UTC.
Position N 38°33' E 024°18'.

Length 84 m; draft 5.7 m.

Type: Cargo ship. MMSI: 237991700.

Date/timePositionNaut miles runAvg speedWind from/ knotsBaromVisibWave heightAir tempDewpointWater temp
2016-Jul-23 02:31N 38°33' E 024°18'35 8.1
2016-Jul-22 22:11N 38°01' E 024°37'6 8.9
2016-Jul-22 21:33N 37°55' E 024°36'9 8.5
2016-Jul-22 20:33N 37°48' E 024°32'8 7.8
2016-Jul-22 19:33N 37°40' E 024°28'74 5.0
2016-Jul-22 04:33N 36°31' E 023°53'1010.3
2016-Jul-22 03:32N 36°29' E 023°40'1110.5
2016-Jul-22 02:31N 36°26' E 023°27'30 0.8
2016-Jul-20 14:26N 36°56' E 023°20'8 9.4
2016-Jul-20 13:31N 37°02' E 023°27'37 9.1
2016-Jul-20 09:26N 37°29' E 023°59'9 9.7
2016-Jul-20 08:29N 37°36' E 024°07'10 9.6
2016-Jul-20 07:29N 37°43' E 024°15'9 9.2
2016-Jul-20 06:31N 37°49' E 024°23'  
2016-Jul-17 18:29N 38°23' E 023°42'1010.4
2016-Jul-17 17:30N 38°22' E 023°55'6 0.4
2016-Jul-17 02:15N 38°22' E 024°03'0 0.4
2016-Jul-17 01:24N 38°23' E 024°03'0 0.0
2016-Jul-17 00:31N 38°23' E 024°03'0 0.0
2016-Jul-16 23:27N 38°23' E 024°03'0 0.0
2016-Jul-16 22:33N 38°23' E 024°03'0 0.0
2016-Jul-16 21:24N 38°23' E 024°03'0 0.0
2016-Jul-16 20:31N 38°23' E 024°03'0 0.1
2016-Jul-16 19:22N 38°23' E 024°03'0 0.0
2016-Jul-16 18:15N 38°23' E 024°03'0 0.0
2016-Jul-16 02:03N 38°23' E 024°03'0 0.0
2016-Jul-16 00:23N 38°23' E 024°03'0 0.0
2016-Jul-15 23:26N 38°23' E 024°03'0 0.0
2016-Jul-15 22:12N 38°23' E 024°03'0 0.0
2016-Jul-15 21:31N 38°23' E 024°03'14 1.0
2016-Jul-15 08:05N 38°09' E 024°06'5 9.2
2016-Jul-15 07:33N 38°05' E 024°09'8 8.5
2016-Jul-15 06:33N 37°58' E 024°15'21 6.3
2016-Jul-15 03:15N 38°10' E 024°37'9 8.5
2016-Jul-15 02:12N 38°18' E 024°31'6 8.8
2016-Jul-15 01:33N 38°23' E 024°27'34 0.8
2016-Jul-13 09:24N 38°22' E 023°45'  

Dump ship's entire track history